Branch, Wisconsin
Current Conditions -  °F | °C
As of 11:56 AM on Saturday 25 Oct 2014 (Local Time) from KMTW Reporting Station
Clear Clear  
Wind Chill: 62°   Ceiling: Unl
Heat Index: 62°   Visibility: 10mi
Dew Point: 37°   Wind: 16mph
Humidity: 39%   Direction: 290°WNW
Pressure: 29.83"   Gusts: 26mph
Location:  44.15°N, 87.76°W
Report Text: KMTW 251656Z AUTO 29014G23KT 10SM CLR 17/03 A2983 RMK AO2 PK WND 31026/1638 SLP124 T01670028
Loading
Personal Weather Stations






























Interactive Weather Map
Tropical Storm Tracking
New forecast layout! Learn more

10-Day Weather Forecast

Advertisements
Track Severe Weather on mobile